EDPM weather

Donzdorf Airport
Donzdorf, Baden-W├╝rttemberg, Germany

Public forecast

Using degrees Celsius for public forecast. Weather courtesy of forecast.io.

METAR (pilot weather report)

Closest report is Stuttgart Airport, 24.7 nm (45.7 km) W. Retrieved 2019/09/19 19:20 UTC (31 minutes ago):

EDDS 191920Z 03007KT CAVOK 11/02 Q1028 NOSIG

TAF (pilot weather forecast)

Closest forecast is Stuttgart Airport, 24.7 nm (45.7 km) W. Retrieved 2019/09/19 18:30 UTC (1 hour ago):

TAF TAF EDDS 191700Z 1918/2018 03009KT CAVOK BECMG 1918/1920 03004KT BECMG 2008/2010 05009KT